Latest Coastal Weather Observations for Devonport Airport

IDT60701

Issued at 11:22 am EDT Thursday 23 February 2017 (issued every 10 minutes, with the page automatically refreshed every 10 minutes)

About coastal observations | Map of coastal stations | Coastal observations for TAS | Marine services | Other Formats
Station Details ID: 091126 Name: DEVONPORT AIRPORT Lat: -41.17 Lon: 146.43 Height: 8.0 m
Data from the previous 72 hours. | See also: Recent months at Devonport Airport
Date/Time
EDT
Temp
°C
Wind Pressure Rain since
9am
mm
Weather Cloud Vis
km
Sea
Height
m
Swell
Dir  Spd
kts
Gust
kts
hPa Trend Height
m
Period
s
Dir
23/11:00am 19.3 NW 17 20 1013.6 - 0.0 - - 10 - - - -
23/10:30am 18.8 NW 15 20 1013.6 - 0.0 - Partly cloudy 10 - - - -
23/10:00am 18.7 NW 15 19 1013.5 - 0.0 - Cloudy 10 - - - -
23/09:30am 18.6 WNW 17 22 1013.1 - 0.0 - Partly cloudy 10 - - - -
23/09:00am 18.5 WNW 14 17 1012.9 - 0.0 - Cloudy 10 - - - -
23/08:30am 18.1 WNW 14 18 1012.5 - 0.0 - Partly cloudy 10 - - - -
23/08:00am 17.5 WNW 14 18 1012.1 - 0.0 - Partly cloudy 10 - - - -
23/07:30am 17.2 NW 17 21 1011.6 - 0.0 - - 10 - - - -
23/07:00am 17.1 NW 17 22 1011.0 - 0.0 - Partly cloudy 10 - - - -
23/06:30am 17.3 NW 18 26 1010.5 - 0.0 - Partly cloudy 10 - - - -
23/06:27am 17.5 NW 16 26 1010.5 - 0.0 - Partly cloudy 10 - - - -
23/06:00am 17.4 NW 13 16 1010.2 - 0.0 - Mostly clear 10 - - - -
23/05:30am 16.9 WNW 7 9 1010.0 - 0.0 - - 10 - - - -
23/05:00am 17.2 WNW 8 10 1009.6 - 0.0 - - 10 - - - -
23/04:30am 17.6 WNW 14 17 1009.2 - 0.0 - Partly cloudy 10 - - - -
23/04:00am 17.2 N 7 9 1008.9 - 0.0 - - 10 - - - -
23/03:30am 17.6 NE 9 11 1008.5 - 0.0 - - 10 - - - -
23/03:00am 17.4 ENE 5 7 1008.5 - 0.0 - Cloudy 10 - - - -
23/02:30am 18.3 E 5 7 1008.8 - 0.0 - - 10 - - - -
23/02:00am 18.3 E 8 11 1008.6 - 0.0 - Partly cloudy 10 - - - -
23/01:50am 17.2 ESE 8 11 1009.3 - 0.0 - Partly cloudy 10 - - - -
23/01:39am 17.1 SW 3 5 1010.2 - 0.0 - Partly cloudy 6 - - - -
23/01:30am 16.9 WSW 1 4 1010.5 - 0.0 - Partly cloudy 10 - - - -
23/01:00am 17.1 WSW 9 13 1010.4 - 0.0 - - 10 - - - -
23/12:30am 17.8 SSE 7 9 1009.5 - 0.0 - Partly cloudy 10 - - - -
23/12:00am 17.8 SE 7 8 1009.9 - 0.0 - Cloudy 10 - - - -
 
Date/Time
EDT
Temp
°C
Wind Pressure Rain since
9am
mm
Weather Cloud Vis
km
Sea
Height
m
Swell
Dir  Spd
kts
Gust
kts
hPa Trend Height
m
Period
s
Dir
22/11:30pm 17.1 SSE 8 9 1010.5 - 0.0 - - 10 - - - -
22/11:00pm 17.3 SE 9 10 1010.7 - 0.0 - - 10 - - - -
22/10:30pm 16.8 SSE 8 10 1011.1 - 0.0 - - 10 - - - -
22/10:00pm 17.1 SSE 10 11 1011.4 - 0.0 - - 10 - - - -
22/09:30pm 16.8 SSE 7 8 1011.6 - 0.0 - - 10 - - - -
22/09:00pm 17.0 SE 6 7 1011.8 - 0.0 - - 10 - - - -
22/08:30pm 17.9 ENE 6 8 1011.8 - 0.0 - - 10 - - - -
22/08:00pm 18.5 ENE 11 13 1011.3 - 0.0 - - 10 - - - -
22/07:30pm 19.5 ENE 11 16 1012.0 - 0.0 - - 10 - - - -
22/07:00pm 19.8 NE 14 17 1011.8 - 0.0 - - 10 - - - -
22/06:30pm 20.0 NE 10 14 1012.9 - 0.0 - - 10 - - - -
22/06:00pm 20.9 NE 12 15 1013.0 - 0.0 - - 10 - - - -
22/05:30pm 20.7 NE 14 19 1013.1 - 0.0 - - 10 - - - -
22/05:00pm 20.8 NE 15 18 1012.9 - 0.0 - - 10 - - - -
22/04:30pm 20.9 NE 15 19 1013.5 - 0.0 - - 10 - - - -
22/04:00pm 21.3 NE 14 17 1014.1 - 0.0 - - 10 - - - -
22/03:30pm 20.4 NE 13 18 1014.4 - 0.0 - - 10 - - - -
22/03:00pm 20.0 NE 11 15 1015.0 - 0.0 - - 10 - - - -
22/02:30pm 20.4 NE 13 16 1015.5 - 0.0 - - 10 - - - -
22/02:00pm 20.1 NE 10 14 1016.1 - 0.0 - Partly cloudy 10 - - - -
22/01:30pm 19.6 NE 10 14 1016.6 - 0.0 - Partly cloudy 10 - - - -
22/01:00pm 19.6 NNE 11 14 1016.9 - 0.0 - - 10 - - - -
22/12:30pm 19.1 NNE 12 14 1017.2 - 0.0 - - 10 - - - -
22/12:00pm 19.4 NE 11 14 1017.5 - 0.0 - - 10 - - - -
22/11:30am 18.3 NNE 9 12 1017.8 - 0.0 - - 10 - - - -
22/11:00am 19.1 ENE 7 10 1018.2 - 0.0 - - 10 - - - -
22/10:30am 18.2 NE 7 11 1018.4 - 0.0 - Partly cloudy 10 - - - -
22/10:00am 18.1 ENE 6 11 1018.5 - 0.0 - Partly cloudy 10 - - - -
22/09:30am 16.3 SE 5 6 1018.8 - 0.0 - Partly cloudy 10 - - - -
22/09:00am 15.6 SSE 6 8 1018.8 - 0.0 - Partly cloudy 10 - - - -
22/08:30am 13.9 SSE 8 10 1018.8 - 0.0 - Partly cloudy 10 - - - -
22/08:00am 12.6 S 7 9 1018.7 - 0.0 - Cloudy 10 - - - -
22/07:30am 11.8 S 7 8 1018.5 - 0.0 - Cloudy 10 - - - -
22/07:00am 11.4 SSE 7 9 1018.4 - 0.0 - Partly cloudy 10 - - - -
22/06:30am 11.2 S 7 8 1018.3 - 0.0 - Partly cloudy 10 - - - -
22/06:00am 11.3 SSE 6 7 1018.3 - 0.0 - Cloudy 10 - - - -
22/05:30am 11.5 SSE 6 6 1018.1 - 0.0 - Partly cloudy 10 - - - -
22/05:00am 11.2 SSE 5 6 1018.0 - 0.0 - Partly cloudy 10 - - - -
22/04:45am 11.2 ESE 4 6 1018.2 - 0.0 - Partly cloudy 10 - - - -
22/04:30am 11.3 SE 5 5 1018.3 - 0.0 - Partly cloudy 10 - - - -
22/04:06am 11.0 SSE 6 7 1018.5 - 0.0 - Partly cloudy 10 - - - -
22/04:00am 11.0 SSE 6 7 1018.5 - 0.0 - Partly cloudy 10 - - - -
22/03:30am 11.4 SSE 8 9 1018.4 - 0.0 - - 10 - - - -
22/03:00am 11.5 SSE 8 9 1018.6 - 0.0 - - 10 - - - -
22/02:30am 11.2 SSE 7 8 1018.6 - 0.0 - - 10 - - - -
22/02:00am 11.3 SSE 7 8 1018.7 - 0.0 - - 10 - - - -
22/01:30am 11.2 SSE 5 6 1018.7 - 0.0 - - 10 - - - -
22/01:00am 10.9 ESE 5 5 1018.9 - 0.0 - - 10 - - - -
22/12:30am 12.1 S 6 8 1019.0 - 0.0 - - 10 - - - -
22/12:00am 11.3 S 1 5 1018.8 - 0.0 - - 10 - - - -
 
Date/Time
EDT
Temp
°C
Wind Pressure Rain since
9am
mm
Weather Cloud Vis
km
Sea
Height
m
Swell
Dir  Spd
kts
Gust
kts
hPa Trend Height
m
Period
s
Dir
21/11:30pm 15.2 W 3 5 1018.9 - 0.0 - - 10 - - - -
21/11:00pm 15.8 WNW 6 8 1019.0 - 0.0 - - 10 - - - -
21/10:30pm 15.9 NW 7 9 1019.0 - 0.0 - - 10 - - - -
21/10:00pm 15.2 N 5 6 1018.7 - 0.0 - - 10 - - - -
21/09:30pm 15.4 N 3 6 1018.6 - 0.0 - - 10 - - - -
21/09:00pm 16.1 WNW 4 7 1018.3 - 0.0 - - 10 - - - -
21/08:30pm 16.8 NW 10 12 1018.0 - 0.0 - - 10 - - - -
21/08:00pm 16.8 NW 11 15 1017.8 - 0.0 - - 10 - - - -
21/07:30pm 17.4 NW 13 16 1017.5 - 0.0 - - 10 - - - -
21/07:00pm 17.6 NW 14 17 1017.1 - 0.0 - - 10 - - - -
21/06:30pm 18.2 NW 15 20 1016.9 - 0.0 - - 10 - - - -
21/06:00pm 18.4 NW 15 19 1016.8 - 0.0 - - 10 - - - -
21/05:30pm 18.8 NW 16 20 1017.1 - 0.0 - - 10 - - - -
21/05:00pm 19.2 NW 15 19 1017.1 - 0.0 - - 10 - - - -
21/04:30pm 19.0 NW 17 23 1017.0 - 0.0 - - 10 - - - -
21/04:00pm 19.2 NW 16 19 1017.1 - 0.0 - - 10 - - - -
21/03:30pm 20.4 NW 16 19 1017.3 - 0.0 - - 10 - - - -
21/03:00pm 19.8 NW 16 21 1017.6 - 0.0 - - 10 - - - -
21/02:30pm 19.2 NNW 14 17 1017.8 - 0.0 - - 10 - - - -
21/02:00pm 20.1 NW 15 17 1018.1 - 0.0 - - 10 - - - -
21/01:30pm 18.9 NNW 13 15 1018.3 - 0.0 - - 10 - - - -
21/01:00pm 18.2 NNW 12 14 1018.4 - 0.0 - - 10 - - - -
21/12:30pm 17.6 NW 13 15 1018.5 - 0.0 - - 10 - - - -
21/12:00pm 17.3 NW 13 16 1018.6 - 0.0 - - 10 - - - -
21/11:30am 18.0 NNW 9 13 1018.6 - 0.0 - - 10 - - - -
21/11:00am 17.7 S 3 7 1018.8 - 0.0 - - 10 - - - -
21/10:30am 17.6 SSW 7 9 1018.7 - 0.0 - - 10 - - - -
21/10:00am 16.6 SSE 9 12 1018.5 - 0.0 - - 10 - - - -
21/09:30am 16.1 SSE 8 10 1018.4 - 0.0 - - 10 - - - -
21/09:00am 14.6 S 7 9 1018.3 - 0.0 - - 10 - - - -
21/08:30am 12.8 S 5 6 1018.0 - 0.0 - - 10 - - - -
21/08:00am 11.5 S 6 9 1017.7 - 0.0 - - 10 - - - -
21/07:30am 9.2 SSW 4 5 1017.1 - 0.0 - - 10 - - - -
21/07:00am 8.3 SSE 7 9 1016.4 - 0.0 - - 10 - - - -
21/06:30am 7.8 SSE 7 8 1016.0 - 0.0 - - 10 - - - -
21/06:00am 8.0 SSE 5 6 1015.7 - 0.0 - - 10 - - - -
21/05:30am 8.2 S 7 8 1015.1 - 0.0 - - 10 - - - -
21/05:00am 8.8 S 7 8 1015.0 - 0.0 - - 10 - - - -
21/04:30am 9.1 S 5 7 1014.9 - 0.0 - - 10 - - - -
21/04:00am 8.5 S 7 7 1014.7 - 0.0 - - 10 - - - -
21/03:30am 8.0 SSE 6 6 1014.3 - 0.0 - - 10 - - - -
21/03:00am 8.5 SSE 5 6 1014.1 - 0.0 - - 10 - - - -
21/02:30am 8.5 S 4 4 1013.9 - 0.0 - - 10 - - - -
21/02:00am 8.8 S 1 4 1013.6 - 0.0 - - 10 - - - -
21/01:30am 9.2 ESE 3 5 1013.7 - 0.0 - - 10 - - - -
21/01:00am 10.3 E 4 5 1013.5 - 0.0 - - 10 - - - -
21/12:30am 10.8 CALM 0 0 1013.4 - 0.0 - - 10 - - - -
21/12:00am 11.3 SE 3 4 1013.2 - 0.0 - - 10 - - - -
 
Date/Time
EDT
Temp
°C
Wind Pressure Rain since
9am
mm
Weather Cloud Vis
km
Sea
Height
m
Swell
Dir  Spd
kts
Gust
kts
hPa Trend Height
m
Period
s
Dir
20/11:30pm 11.2 SSE 4 4 1012.9 - 0.0 - - 10 - - - -
20/11:00pm 11.8 SSW 5 6 1012.4 - 0.0 - - 10 - - - -
20/10:30pm 13.0 S 5 6 1012.3 - 0.0 - - 10 - - - -
20/10:00pm 14.2 SSW 5 7 1012.0 - 0.0 - - 10 - - - -
20/09:30pm 16.3 SSW 9 12 1011.7 - 0.0 - - 10 - - - -
20/09:00pm 17.1 SSW 11 15 1011.1 - 0.0 - - 10 - - - -
20/08:30pm 16.9 SW 9 13 1010.4 - 0.0 - - 10 - - - -
20/08:00pm 16.7 N 3 4 1009.9 - 0.0 - - 10 - - - -
20/07:30pm 17.7 N 6 7 1009.5 - 0.0 - - 10 - - - -
20/07:00pm 17.6 NNW 7 9 1009.0 - 0.0 - - 10 - - - -
20/06:30pm 17.7 NW 7 8 1008.7 - 0.0 - - 10 - - - -
20/06:00pm 18.0 NW 10 11 1008.5 - 0.0 - Partly cloudy 10 - - - -
20/05:30pm 18.1 WNW 8 11 1008.1 - 0.0 - Partly cloudy 10 - - - -
20/05:00pm 18.3 NW 11 13 1007.8 - 0.0 - Cloudy 10 - - - -
20/04:30pm 18.6 WNW 10 13 1007.8 - 0.0 - Cloudy 10 - - - -
20/04:00pm 19.1 NW 12 14 1007.6 - 0.0 - Cloudy 10 - - - -
20/03:30pm 18.8 NW 14 17 1007.4 - 0.0 - Partly cloudy 10 - - - -
20/03:00pm 18.7 NW 14 18 1007.5 - 0.0 - Mostly cloudy 10 - - - -
20/02:30pm 17.2 NW 14 17 1007.7 - 0.0 - Cloudy 10 - - - -
20/02:00pm 17.1 NW 15 19 1007.5 - 0.0 - Partly cloudy 10 - - - -
20/01:30pm 18.2 NW 13 16 1007.5 - 0.0 - - 10 - - - -
20/01:00pm 18.5 NW 13 16 1007.7 - 0.0 - - 10 - - - -
20/12:30pm 17.3 NW 13 15 1007.7 - 0.0 - - 10 - - - -
20/12:00pm 16.6 WNW 12 14 1008.0 - 0.0 - Mostly clear 10 - - - -
20/11:30am 16.1 WNW 10 13 1008.0 - 0.0 - - 10 - - - -

Other Formats:

Comma delimited format used in spreadsheet applications
http://www.bom.gov.au/fwo/IDT60701/IDT60701.95960.axf

JavaScript Object Notation format (JSON) in row-major order
http://www.bom.gov.au/fwo/IDT60701/IDT60701.95960.json